Siqueira Campos, Brazil
Current Conditions -  °F | °C
As of 3:00 AM on Saturday 29 Nov 2014 (Local Time) from SBLO Reporting Station
Clear Clear  
Wind Chill: 72°   Ceiling: Unl
Heat Index: 72°   Visibility: 6mi
Dew Point: 63°   Wind: 8mph
Humidity: 73%   Direction: 110°ESE
Pressure: 30.03"   Gusts: NA
Location:  23.69°S, 49.83°W
Report Text: SBLO 290500Z 11007KT CAVOK 22/17 Q1017
Loading
Personal Weather Stations






























Interactive Weather Map New forecast layout! Learn more

10-Day Weather Forecast

Advertisements
Track Severe Weather on mobile